Time;durP1;ratioP1;P1;durP2;ratioP2;P2;SDS_P1;SDS_P2;PMS_P1;PMS_P2;Temp;Humidity;BMP_temperature;BMP_pressure;BME280_temperature;BME280_humidity;BME280_pressure;Samples;Min_cycle;Max_cycle;Signal;HPM_P1;HPM_P2
2022/12/28 00:01:23;;;;;;;;;;;6.60;99.90;;;;;;5059280;28;19928;-75
2022/12/28 00:03:50;;;;;;;;;;;6.60;99.90;;;;;;5051674;28;19936;-76
2022/12/28 00:06:19;;;;;;;;;;;6.70;99.90;;;;;;5056530;28;19928;-76
2022/12/28 00:08:46;;;;;;;;;;;6.70;99.90;;;;;;5051281;28;19936;-74
2022/12/28 00:11:14;;;;;;;;;;;6.70;99.90;;;;;;5053725;28;19929;-74
2022/12/28 00:13:41;;;;;;;;;;;6.80;99.90;;;;;;5058643;28;20389;-77
2022/12/28 00:16:09;;;;;;;;;;;6.80;99.90;;;;;;5058857;28;19924;-77
2022/12/28 00:18:36;;;;;;;;;;;6.90;99.90;;;;;;5049218;28;19933;-74
2022/12/28 00:21:03;;;;;;;;;;;6.90;99.90;;;;;;5041442;28;20390;-76
2022/12/28 00:23:32;;;;;;;;;;;6.90;99.90;;;;;;5048375;28;20301;-77
2022/12/28 00:26:05;;;;;;;;;;;6.90;99.90;;;;;;5063631;28;20420;-77
2022/12/28 00:28:32;;;;;;;;;;;7.00;99.90;;;;;;5060090;28;19924;-74
2022/12/28 00:30:59;;;;;;;;;;;7.00;99.90;;;;;;5052943;28;19929;-79
2022/12/28 00:33:25;;;;;;;;;;;6.90;99.90;;;;;;5054580;28;19936;-75
2022/12/28 00:35:53;;;;;;;;;;;6.90;99.90;;;;;;5061604;28;19925;-72
2022/12/28 00:38:19;;;;;;;;;;;6.80;99.90;;;;;;5063666;28;19936;-73
2022/12/28 00:40:47;;;;;;;;;;;6.80;99.90;;;;;;5061714;28;19943;-72
2022/12/28 00:43:15;;;;;;;;;;;6.80;99.90;;;;;;5052903;28;19932;-73
2022/12/28 00:45:43;;;;;;;;;;;6.80;99.90;;;;;;5062867;28;19932;-73
2022/12/28 00:48:10;;;;;;;;;;;6.70;99.90;;;;;;5071775;28;20304;-73
2022/12/28 00:50:38;;;;;;;;;;;6.70;99.90;;;;;;5057228;28;20379;-73
2022/12/28 00:53:05;;;;;;;;;;;6.70;99.90;;;;;;5064762;28;20396;-73
2022/12/28 00:55:32;;;;;;;;;;;6.70;99.90;;;;;;5065456;28;19938;-73
2022/12/28 00:58:00;;;;;;;;;;;6.70;99.90;;;;;;5063579;28;19928;-72
2022/12/28 01:00:28;;;;;;;;;;;6.70;99.90;;;;;;5053640;28;19933;-72
2022/12/28 01:02:55;;;;;;;;;;;6.70;99.90;;;;;;5057028;28;19931;-72
2022/12/28 01:05:22;;;;;;;;;;;6.80;99.90;;;;;;5061039;28;19932;-72
2022/12/28 01:07:48;;;;;;;;;;;6.80;99.90;;;;;;5064965;28;19995;-73
2022/12/28 01:10:16;;;;;;;;;;;6.80;99.90;;;;;;5064116;28;19958;-73
2022/12/28 01:12:43;;;;;;;;;;;6.80;99.90;;;;;;5064349;28;20279;-73
2022/12/28 01:15:12;;;;;;;;;;;6.80;99.90;;;;;;5052389;28;19924;-73
2022/12/28 01:17:40;;;;;;;;;;;6.80;99.90;;;;;;5054405;28;20281;-73
2022/12/28 01:20:08;;;;;;;;;;;6.70;99.90;;;;;;5047809;28;19960;-73
2022/12/28 01:22:35;;;;;;;;;;;6.70;99.90;;;;;;5050708;28;19924;-73
2022/12/28 01:25:01;;;;;;;;;;;6.70;99.90;;;;;;5063267;28;19933;-74
2022/12/28 01:27:28;;;;;;;;;;;6.70;99.90;;;;;;5060310;28;19925;-73
2022/12/28 01:29:55;;;;;;;;;;;6.70;99.90;;;;;;5054526;28;20011;-73
2022/12/28 01:32:23;;;;;;;;;;;6.70;99.90;;;;;;5051681;28;20659;-74
2022/12/28 01:34:50;;;;;;;;;;;6.70;99.90;;;;;;5049441;28;20303;-73
2022/12/28 01:37:16;;;;;;;;;;;6.80;99.90;;;;;;5053634;28;19925;-73
2022/12/28 01:39:43;;;;;;;;;;;6.80;99.90;;;;;;5050089;28;20467;-73
2022/12/28 01:42:15;;;;;;;;;;;6.80;99.90;;;;;;5048851;28;19929;-73
2022/12/28 01:44:43;;;;;;;;;;;6.70;99.90;;;;;;5050995;28;19924;-73
2022/12/28 01:47:12;;;;;;;;;;;6.80;99.90;;;;;;5059485;28;20451;-73
2022/12/28 01:49:42;;;;;;;;;;;6.80;99.90;;;;;;5053888;28;19931;-73
2022/12/28 01:52:11;;;;;;;;;;;6.80;99.90;;;;;;5049113;28;20393;-73
2022/12/28 01:54:40;;;;;;;;;;;6.80;99.90;;;;;;5057673;28;19928;-73
2022/12/28 01:57:07;;;;;;;;;;;6.80;99.90;;;;;;5050803;28;19928;-74
2022/12/28 01:59:37;;;;;;;;;;;6.90;99.90;;;;;;5049664;28;20019;-73
2022/12/28 02:02:04;;;;;;;;;;;6.90;99.90;;;;;;5054406;28;20372;-74
2022/12/28 02:04:31;;;;;;;;;;;6.90;99.90;;;;;;5053967;28;19932;-73
2022/12/28 02:07:00;;;;;;;;;;;6.90;99.90;;;;;;5059418;28;19935;-73
2022/12/28 02:09:29;;;;;;;;;;;6.90;99.90;;;;;;5056994;28;19928;-73
2022/12/28 02:11:57;;;;;;;;;;;7.00;99.90;;;;;;5055642;28;19988;-74
2022/12/28 02:14:24;;;;;;;;;;;7.00;99.90;;;;;;5054749;28;19928;-74
2022/12/28 02:16:51;;;;;;;;;;;7.00;99.90;;;;;;5057560;28;19928;-73
2022/12/28 02:19:21;;;;;;;;;;;7.10;99.90;;;;;;5051737;28;20377;-73
2022/12/28 02:21:55;;;;;;;;;;;7.10;99.90;;;;;;5051596;28;20398;-73
2022/12/28 02:24:41;;;;;;;;;;;7.10;99.90;;;;;;5062196;28;19978;-73
2022/12/28 02:27:13;;;;;;;;;;;7.20;99.90;;;;;;5055089;28;20499;-73
2022/12/28 02:29:51;;;;;;;;;;;7.20;99.90;;;;;;5060243;28;19944;-73
2022/12/28 02:32:26;;;;;;;;;;;7.20;99.90;;;;;;5058404;28;20706;-73
2022/12/28 02:34:57;;;;;;;;;;;7.30;99.90;;;;;;5057879;28;19971;-74
2022/12/28 02:37:26;;;;;;;;;;;7.30;99.90;;;;;;5049215;28;19962;-73
2022/12/28 02:39:56;;;;;;;;;;;7.40;99.90;;;;;;5050371;28;20024;-74
2022/12/28 02:42:25;;;;;;;;;;;7.40;99.90;;;;;;5049386;28;19940;-74
2022/12/28 02:50:31;;;;;;;;;;;7.60;99.90;;;;;;5048650;28;19927;-73
2022/12/28 02:53:16;;;;;;;;;;;7.60;99.90;;;;;;5058597;28;19925;-73
2022/12/28 02:56:07;;;;;;;;;;;7.60;99.90;;;;;;5050316;28;19924;-74
2022/12/28 02:58:52;;;;;;;;;;;7.70;99.90;;;;;;5055684;28;19940;-73
2022/12/28 03:01:24;;;;;;;;;;;7.70;99.90;;;;;;5043914;28;20392;-74
2022/12/28 03:03:57;;;;;;;;;;;7.70;99.90;;;;;;5050332;28;19928;-74
2022/12/28 03:09:15;;;;;;;;;;;7.80;99.90;;;;;;5017703;28;19924;-74
2022/12/28 03:11:44;;;;;;;;;;;7.80;99.90;;;;;;5056601;28;19968;-74
2022/12/28 03:14:12;;;;;;;;;;;7.80;99.90;;;;;;5064713;28;20019;-74
2022/12/28 03:33:21;;;;;;;;;;;8.00;99.90;;;;;;5008604;28;20307;-73
2022/12/28 03:35:54;;;;;;;;;;;8.10;99.90;;;;;;5062563;28;19967;-74
2022/12/28 03:38:27;;;;;;;;;;;8.10;99.90;;;;;;5060034;28;19924;-73
2022/12/28 03:40:58;;;;;;;;;;;8.10;99.90;;;;;;5057623;28;19929;-74
2022/12/28 03:43:41;;;;;;;;;;;8.10;99.90;;;;;;5058739;28;19925;-74
2022/12/28 03:46:15;;;;;;;;;;;8.10;99.90;;;;;;5059579;28;19936;-74
2022/12/28 03:48:45;;;;;;;;;;;8.20;99.90;;;;;;5048615;28;19971;-74
2022/12/28 03:51:14;;;;;;;;;;;8.20;99.90;;;;;;5046685;28;20314;-73
2022/12/28 03:53:42;;;;;;;;;;;8.20;99.90;;;;;;5062249;28;19953;-73
2022/12/28 03:56:13;;;;;;;;;;;8.20;99.90;;;;;;5051546;28;19935;-73
2022/12/28 03:58:41;;;;;;;;;;;8.20;99.90;;;;;;5051353;28;19929;-73
2022/12/28 04:01:08;;;;;;;;;;;8.20;99.90;;;;;;5061278;28;19936;-74
2022/12/28 04:03:37;;;;;;;;;;;8.30;99.90;;;;;;5053192;28;19931;-73
2022/12/28 04:06:06;;;;;;;;;;;8.30;99.90;;;;;;5054682;28;20027;-73
2022/12/28 04:08:33;;;;;;;;;;;8.40;99.90;;;;;;5053207;28;20467;-74
2022/12/28 04:11:01;;;;;;;;;;;8.40;99.90;;;;;;5061933;28;19929;-74
2022/12/28 04:13:28;;;;;;;;;;;8.40;99.90;;;;;;5044231;28;20310;-73
2022/12/28 04:16:01;;;;;;;;;;;8.40;99.90;;;;;;5050332;28;20342;-73
2022/12/28 04:18:30;;;;;;;;;;;8.50;99.90;;;;;;5063674;28;20320;-74
2022/12/28 04:20:56;;;;;;;;;;;8.50;99.90;;;;;;5053613;28;19935;-76
2022/12/28 04:23:25;;;;;;;;;;;8.50;99.90;;;;;;5046166;28;20334;-75
2022/12/28 04:26:06;;;;;;;;;;;8.60;99.90;;;;;;5056758;28;19937;-75
2022/12/28 04:28:33;;;;;;;;;;;8.60;99.90;;;;;;5055179;28;20455;-75
2022/12/28 04:31:19;;;;;;;;;;;8.60;99.90;;;;;;5048618;28;19936;-73
2022/12/28 04:33:53;;;;;;;;;;;8.60;99.90;;;;;;5049914;28;19932;-74
2022/12/28 04:36:20;;;;;;;;;;;8.70;99.90;;;;;;5056737;28;19990;-74
2022/12/28 04:38:50;;;;;;;;;;;8.70;99.90;;;;;;5057074;28;19929;-75
2022/12/28 04:44:08;;;;;;;;;;;8.80;99.90;;;;;;4965619;28;20058;-73
2022/12/28 04:46:35;;;;;;;;;;;8.90;99.90;;;;;;4971863;28;20356;-73
2022/12/28 04:49:02;;;;;;;;;;;9.00;99.90;;;;;;4972366;28;20314;-74
2022/12/28 04:51:29;;;;;;;;;;;9.00;99.90;;;;;;4973549;28;19932;-73
2022/12/28 04:53:57;;;;;;;;;;;9.00;99.90;;;;;;4976091;28;19933;-73
2022/12/28 04:56:25;;;;;;;;;;;9.00;99.90;;;;;;5043147;22;19931;-74
2022/12/28 04:58:53;;;;;;;;;;;9.50;99.90;;;;;;5043700;28;19936;-74
2022/12/28 05:01:20;;;;;;;;;;;9.00;99.90;;;;;;5036287;28;19925;-74
2022/12/28 05:03:47;;;;;;;;;;;9.10;99.90;;;;;;5032985;28;19929;-75
2022/12/28 05:06:15;;;;;;;;;;;9.10;99.90;;;;;;5039719;28;19999;-75
2022/12/28 05:08:42;;;;;;;;;;;9.10;99.90;;;;;;5041641;28;19943;-75
2022/12/28 05:11:12;;;;;;;;;;;9.30;99.90;;;;;;5053324;28;19924;-75
2022/12/28 05:13:39;;;;;;;;;;;9.10;99.90;;;;;;5046256;28;19929;-75
2022/12/28 05:16:07;;;;;;;;;;;9.00;99.90;;;;;;5030372;28;19929;-75
2022/12/28 05:18:34;;;;;;;;;;;9.00;99.90;;;;;;5049369;28;19935;-75
2022/12/28 05:21:01;;;;;;;;;;;9.00;99.90;;;;;;5043303;28;19925;-75
2022/12/28 05:23:28;;;;;;;;;;;9.10;99.90;;;;;;5049397;28;20132;-75
2022/12/28 05:25:55;;;;;;;;;;;9.00;99.90;;;;;;5034639;28;19931;-75
2022/12/28 05:28:23;;;;;;;;;;;9.10;99.90;;;;;;5036878;28;19932;-75
2022/12/28 05:30:50;;;;;;;;;;;9.10;99.90;;;;;;5050078;28;19944;-75
2022/12/28 05:33:17;;;;;;;;;;;9.10;99.90;;;;;;5042253;28;19925;-75
2022/12/28 05:35:44;;;;;;;;;;;9.20;99.90;;;;;;5056789;28;19977;-74
2022/12/28 05:38:10;;;;;;;;;;;9.30;99.90;;;;;;5048997;28;20038;-75
2022/12/28 05:40:37;;;;;;;;;;;9.30;99.90;;;;;;5038524;28;19928;-75
2022/12/28 05:43:04;;;;;;;;;;;9.30;99.90;;;;;;5053917;28;20010;-75
2022/12/28 05:45:32;;;;;;;;;;;9.30;99.90;;;;;;5038532;28;19931;-75
2022/12/28 05:47:59;;;;;;;;;;;9.30;99.90;;;;;;5037092;28;19944;-75
2022/12/28 05:50:25;;;;;;;;;;;9.30;99.90;;;;;;5055108;28;20024;-75
2022/12/28 05:52:52;;;;;;;;;;;9.30;99.90;;;;;;5026219;28;19940;-74
2022/12/28 05:55:19;;;;;;;;;;;9.20;99.90;;;;;;5053214;28;19947;-75
2022/12/28 05:57:45;;;;;;;;;;;9.10;99.90;;;;;;5047951;28;19929;-75
2022/12/28 06:00:13;;;;;;;;;;;9.00;99.90;;;;;;5049712;28;19933;-75
2022/12/28 06:02:41;;;;;;;;;;;9.00;99.90;;;;;;5026969;28;20022;-75
2022/12/28 06:05:08;;;;;;;;;;;8.90;99.90;;;;;;5051795;28;19935;-75
2022/12/28 06:07:35;;;;;;;;;;;8.90;99.90;;;;;;5027364;28;19925;-75
2022/12/28 06:10:02;;;;;;;;;;;8.90;99.90;;;;;;5043869;28;19925;-75
2022/12/28 06:12:28;;;;;;;;;;;8.90;99.90;;;;;;5055863;28;20030;-75
2022/12/28 06:14:55;;;;;;;;;;;8.90;99.90;;;;;;5057067;28;19925;-76
2022/12/28 06:17:22;;;;;;;;;;;8.80;99.90;;;;;;5056534;28;19928;-76
2022/12/28 06:19:50;;;;;;;;;;;8.80;99.90;;;;;;5038834;28;20321;-78
2022/12/28 06:22:17;;;;;;;;;;;8.80;99.90;;;;;;5055822;28;19925;-77
2022/12/28 06:24:44;;;;;;;;;;;8.80;99.90;;;;;;5035892;28;19939;-76
2022/12/28 06:27:11;;;;;;;;;;;8.80;99.90;;;;;;5057273;28;19929;-77
2022/12/28 06:29:37;;;;;;;;;;;8.80;99.90;;;;;;5039824;28;19931;-76
2022/12/28 06:32:04;;;;;;;;;;;8.90;99.90;;;;;;5046922;28;20494;-76
2022/12/28 06:34:31;;;;;;;;;;;8.90;99.90;;;;;;5028271;28;20022;-76
2022/12/28 06:36:59;;;;;;;;;;;9.00;99.90;;;;;;5056172;28;19948;-76
2022/12/28 06:39:26;;;;;;;;;;;9.00;99.90;;;;;;5054589;28;20015;-76
2022/12/28 06:41:53;;;;;;;;;;;9.00;99.90;;;;;;5040233;28;19936;-76
2022/12/28 06:44:19;;;;;;;;;;;9.00;99.90;;;;;;5051718;28;20413;-76
2022/12/28 06:46:46;;;;;;;;;;;9.10;99.90;;;;;;5030459;28;19928;-76
2022/12/28 06:49:13;;;;;;;;;;;9.10;99.90;;;;;;5049390;28;19988;-75
2022/12/28 06:51:40;;;;;;;;;;;9.10;99.90;;;;;;5035861;28;19932;-75
2022/12/28 06:54:09;;;;;;;;;;;9.10;99.90;;;;;;5028539;28;20426;-75
2022/12/28 06:56:36;;;;;;;;;;;9.10;99.90;;;;;;5054431;28;19935;-76
2022/12/28 06:59:03;;;;;;;;;;;9.10;99.90;;;;;;5037283;28;19932;-75
2022/12/28 07:01:31;;;;;;;;;;;9.00;99.90;;;;;;5042046;28;20027;-76
2022/12/28 07:04:00;;;;;;;;;;;9.10;99.90;;;;;;5043640;28;19935;-75
2022/12/28 07:06:28;;;;;;;;;;;9.10;99.90;;;;;;5025763;28;20323;-75
2022/12/28 07:08:58;;;;;;;;;;;9.10;99.90;;;;;;5043892;28;19929;-75
2022/12/28 07:11:27;;;;;;;;;;;9.10;99.90;;;;;;5060860;28;19932;-75
2022/12/28 07:13:55;;;;;;;;;;;9.10;99.90;;;;;;5034990;28;19929;-76
2022/12/28 07:16:24;;;;;;;;;;;9.10;99.90;;;;;;5062195;28;20019;-76
2022/12/28 07:18:50;;;;;;;;;;;9.20;99.90;;;;;;5061339;28;19939;-77
2022/12/28 07:21:19;;;;;;;;;;;9.20;99.90;;;;;;5060945;28;20004;-75
2022/12/28 07:23:49;;;;;;;;;;;9.20;99.90;;;;;;5059552;28;20067;-75
2022/12/28 07:26:16;;;;;;;;;;;9.20;99.90;;;;;;5036547;28;19929;-76
2022/12/28 07:28:45;;;;;;;;;;;9.20;99.90;;;;;;5042314;28;20521;-75
2022/12/28 07:31:13;;;;;;;;;;;9.20;99.90;;;;;;5052371;28;20348;-75
2022/12/28 07:33:40;;;;;;;;;;;9.20;99.90;;;;;;5051946;28;19929;-76
2022/12/28 07:36:08;;;;;;;;;;;9.20;99.90;;;;;;5057135;28;19928;-77
2022/12/28 07:38:35;;;;;;;;;;;9.20;99.90;;;;;;5038054;28;19929;-78
2022/12/28 07:41:02;;;;;;;;;;;9.20;99.90;;;;;;5031171;28;20034;-77
2022/12/28 07:43:30;;;;;;;;;;;9.20;99.90;;;;;;5038795;28;19977;-77
2022/12/28 07:46:02;;;;;;;;;;;8.60;99.90;;;;;;5030201;28;19933;-77
2022/12/28 07:48:30;;;;;;;;;;;9.20;99.90;;;;;;5022511;28;20023;-77
2022/12/28 07:50:57;;;;;;;;;;;9.20;99.90;;;;;;5054673;28;20055;-76
2022/12/28 07:53:24;;;;;;;;;;;9.20;99.90;;;;;;5047699;28;20091;-75
2022/12/28 07:55:54;;;;;;;;;;;9.20;99.90;;;;;;5033212;28;19925;-75
2022/12/28 07:58:22;;;;;;;;;;;8.90;99.90;;;;;;5028703;28;20020;-75
2022/12/28 08:00:49;;;;;;;;;;;9.20;99.90;;;;;;5027817;28;19988;-76
2022/12/28 08:03:17;;;;;;;;;;;9.30;99.90;;;;;;5048644;28;19951;-76
2022/12/28 08:05:44;;;;;;;;;;;9.30;99.90;;;;;;5030149;28;19983;-76
2022/12/28 08:08:11;;;;;;;;;;;9.30;99.90;;;;;;5039193;28;19925;-76
2022/12/28 08:10:38;;;;;;;;;;;9.40;99.90;;;;;;5041852;28;19924;-76
2022/12/28 08:13:04;;;;;;;;;;;9.40;99.90;;;;;;5044450;28;19947;-77
2022/12/28 08:15:31;;;;;;;;;;;9.50;99.90;;;;;;5026172;28;20654;-77
2022/12/28 08:17:58;;;;;;;;;;;9.50;99.90;;;;;;5059598;28;19928;-77
2022/12/28 08:20:26;;;;;;;;;;;9.60;99.90;;;;;;5048297;28;20007;-77
2022/12/28 08:22:53;;;;;;;;;;;9.60;99.90;;;;;;5032156;28;19967;-76
2022/12/28 08:25:20;;;;;;;;;;;9.70;99.90;;;;;;5049885;28;20032;-76
2022/12/28 08:27:47;;;;;;;;;;;9.70;99.90;;;;;;5025568;28;20569;-76
2022/12/28 08:30:14;;;;;;;;;;;9.80;99.90;;;;;;5043590;28;19929;-76
2022/12/28 08:32:41;;;;;;;;;;;9.90;99.90;;;;;;5025070;28;19929;-76
2022/12/28 08:35:08;;;;;;;;;;;9.90;99.90;;;;;;5034201;28;20024;-76
2022/12/28 08:37:37;;;;;;;;;;;9.90;99.90;;;;;;5052058;28;20443;-76
2022/12/28 08:40:05;;;;;;;;;;;9.90;99.90;;;;;;5026237;28;19996;-76
2022/12/28 08:42:31;;;;;;;;;;;10.00;99.90;;;;;;5029681;28;19932;-76
2022/12/28 08:44:58;;;;;;;;;;;10.00;99.90;;;;;;5051110;28;19925;-76
2022/12/28 08:47:25;;;;;;;;;;;10.10;99.90;;;;;;5053495;28;19960;-76
2022/12/28 08:49:52;;;;;;;;;;;10.10;99.90;;;;;;5049464;28;19925;-76
2022/12/28 08:52:21;;;;;;;;;;;10.10;99.90;;;;;;5047384;28;19928;-76
2022/12/28 08:54:49;;;;;;;;;;;10.10;99.90;;;;;;5060232;28;19929;-74
2022/12/28 08:57:15;;;;;;;;;;;10.20;99.90;;;;;;5061576;28;20027;-75
2022/12/28 08:59:43;;;;;;;;;;;10.20;99.90;;;;;;5036567;28;20277;-74
2022/12/28 09:02:12;;;;;;;;;;;10.20;99.90;;;;;;5045602;28;20024;-73
2022/12/28 09:04:39;;;;;;;;;;;10.30;99.90;;;;;;5027702;28;20440;-75
2022/12/28 09:07:07;;;;;;;;;;;10.30;99.90;;;;;;5048301;28;19924;-75
2022/12/28 09:09:34;;;;;;;;;;;10.30;99.90;;;;;;5027761;28;19932;-75
2022/12/28 09:12:02;;;;;;;;;;;10.40;99.90;;;;;;5036007;28;19966;-75
2022/12/28 09:14:29;;;;;;;;;;;10.50;99.90;;;;;;5041889;28;19929;-76
2022/12/28 09:16:56;;;;;;;;;;;10.50;99.90;;;;;;5052358;28;20389;-76
2022/12/28 09:19:23;;;;;;;;;;;10.60;99.90;;;;;;5028532;28;19928;-76
2022/12/28 09:21:51;;;;;;;;;;;10.60;99.90;;;;;;5036786;28;19925;-76
2022/12/28 09:24:19;;;;;;;;;;;10.70;99.90;;;;;;5066024;28;19932;-75
2022/12/28 09:26:47;;;;;;;;;;;10.70;99.90;;;;;;5033398;28;19952;-76
2022/12/28 09:29:16;;;;;;;;;;;10.80;99.90;;;;;;5054834;28;19958;-76
2022/12/28 09:31:44;;;;;;;;;;;10.80;99.90;;;;;;5058943;28;20305;-75
2022/12/28 09:34:12;;;;;;;;;;;10.80;99.90;;;;;;5057572;28;19928;-76
2022/12/28 09:36:40;;;;;;;;;;;10.80;99.90;;;;;;5069071;28;20002;-76
2022/12/28 09:39:11;;;;;;;;;;;10.90;99.90;;;;;;5070225;28;19959;-77
2022/12/28 09:41:41;;;;;;;;;;;10.90;99.90;;;;;;5052623;28;20579;-76
2022/12/28 09:44:17;;;;;;;;;;;11.00;99.90;;;;;;5055461;28;19999;-76
2022/12/28 09:46:48;;;;;;;;;;;11.00;99.90;;;;;;5044953;28;19932;-76
2022/12/28 09:49:16;;;;;;;;;;;11.00;99.90;;;;;;5053939;28;19933;-76
2022/12/28 09:51:46;;;;;;;;;;;11.00;99.90;;;;;;5021563;28;20270;-76
2022/12/28 09:54:13;;;;;;;;;;;11.10;99.90;;;;;;5060058;28;19925;-76
2022/12/28 09:56:41;;;;;;;;;;;11.10;99.90;;;;;;5529407;23;19929;-76
2022/12/28 09:59:10;;;;;;;;;;;11.20;99.90;;;;;;5022118;28;19929;-76
2022/12/28 10:01:39;;;;;;;;;;;10.90;99.90;;;;;;5021023;28;19933;-76
2022/12/28 10:04:08;;;;;;;;;;;11.20;99.90;;;;;;4995012;28;19940;-76
2022/12/28 10:06:36;;;;;;;;;;;11.80;99.90;;;;;;5002727;28;19936;-76
2022/12/28 10:09:05;;;;;;;;;;;11.30;99.90;;;;;;5017116;28;20208;-76
2022/12/28 10:11:33;;;;;;;;;;;11.30;99.90;;;;;;4997723;28;19945;-76
2022/12/28 10:14:01;;;;;;;;;;;11.90;99.90;;;;;;4992718;28;20051;-74
2022/12/28 10:16:30;;;;;;;;;;;10.80;99.90;;;;;;5011561;28;20272;-74
2022/12/28 10:18:57;;;;;;;;;;;11.30;99.90;;;;;;4982437;28;20397;-74
2022/12/28 10:21:27;;;;;;;;;;;12.10;99.90;;;;;;5006918;28;20367;-75
2022/12/28 10:23:55;;;;;;;;;;;11.30;99.90;;;;;;4993409;28;20013;-75
2022/12/28 10:26:22;;;;;;;;;;;11.30;99.90;;;;;;4997923;28;20476;-75
2022/12/28 10:28:51;;;;;;;;;;;11.40;99.90;;;;;;4995999;28;19929;-75
2022/12/28 10:31:30;;;;;;;;;;;11.40;99.90;;;;;;5008925;28;19929;-75
2022/12/28 10:33:57;;;;;;;;;;;11.50;99.90;;;;;;4993044;28;19940;-75
2022/12/28 10:36:25;;;;;;;;;;;11.50;99.90;;;;;;5016905;28;19988;-75
2022/12/28 10:38:54;;;;;;;;;;;11.50;99.90;;;;;;5013846;28;19933;-75
2022/12/28 10:41:21;;;;;;;;;;;11.50;99.90;;;;;;5009477;28;19940;-75
2022/12/28 10:43:50;;;;;;;;;;;11.50;99.90;;;;;;5005077;28;19952;-75
2022/12/28 10:46:17;;;;;;;;;;;11.50;99.90;;;;;;4994706;28;20366;-75
2022/12/28 10:48:46;;;;;;;;;;;11.60;99.90;;;;;;4989896;28;19929;-75
2022/12/28 10:51:16;;;;;;;;;;;11.60;99.90;;;;;;4993866;28;19984;-75
2022/12/28 10:53:45;;;;;;;;;;;11.70;99.90;;;;;;5006145;28;19936;-77
2022/12/28 10:56:21;;;;;;;;;;;11.70;99.90;;;;;;5005782;28;20573;-75
2022/12/28 10:58:48;;;;;;;;;;;11.80;99.90;;;;;;4991140;28;20363;-76
2022/12/28 11:01:19;;;;;;;;;;;11.90;99.90;;;;;;4996547;28;19936;-76
2022/12/28 11:03:58;;;;;;;;;;;12.00;99.90;;;;;;5009823;28;19936;-75
2022/12/28 11:06:27;;;;;;;;;;;12.00;99.90;;;;;;5020605;28;20543;-76
2022/12/28 11:09:06;;;;;;;;;;;12.10;99.90;;;;;;5012106;28;19959;-75
2022/12/28 11:11:33;;;;;;;;;;;12.00;99.90;;;;;;5005918;28;19933;-76
2022/12/28 11:14:02;;;;;;;;;;;12.00;99.90;;;;;;4996328;28;20008;-76
2022/12/28 11:16:31;;;;;;;;;;;12.40;99.90;;;;;;5003728;28;19929;-77
2022/12/28 11:18:58;;;;;;;;;;;12.00;99.90;;;;;;4997318;28;19930;-76
2022/12/28 11:21:24;;;;;;;;;;;12.00;99.90;;;;;;5013746;28;19987;-76
2022/12/28 11:23:51;;;;;;;;;;;12.00;99.90;;;;;;4993333;28;19929;-77
2022/12/28 11:26:20;;;;;;;;;;;12.00;99.90;;;;;;5030619;28;19936;-75
2022/12/28 11:28:58;;;;;;;;;;;12.00;99.90;;;;;;5012725;28;20302;-76
2022/12/28 11:31:27;;;;;;;;;;;12.00;99.90;;;;;;5016516;28;19932;-76
2022/12/28 11:33:56;;;;;;;;;;;12.00;99.90;;;;;;4997512;28;20020;-75
2022/12/28 11:36:24;;;;;;;;;;;11.90;99.90;;;;;;5007849;28;19929;-78
2022/12/28 11:38:52;;;;;;;;;;;11.90;99.90;;;;;;5022096;28;19936;-75
2022/12/28 11:41:38;;;;;;;;;;;11.90;99.90;;;;;;4994097;28;19925;-75
2022/12/28 11:44:19;;;;;;;;;;;11.80;99.90;;;;;;4984620;28;19933;-75
2022/12/28 11:46:59;;;;;;;;;;;11.80;99.90;;;;;;5012529;28;19937;-76
2022/12/28 11:49:28;;;;;;;;;;;11.80;99.90;;;;;;5011111;28;19929;-77
2022/12/28 11:52:14;;;;;;;;;;;12.80;99.90;;;;;;5009097;28;19930;-77
2022/12/28 11:54:50;;;;;;;;;;;11.80;99.90;;;;;;4998302;28;19925;-77
2022/12/28 11:57:32;;;;;;;;;;;11.80;99.90;;;;;;5012253;28;19987;-77
2022/12/28 12:00:30;;;;;;;;;;;11.80;99.90;;;;;;5011954;28;20342;-76
2022/12/28 12:03:00;;;;;;;;;;;11.80;99.90;;;;;;5010475;28;19930;-76
2022/12/28 12:05:45;;;;;;;;;;;11.80;99.90;;;;;;5008200;28;19964;-76
2022/12/28 12:08:27;;;;;;;;;;;11.80;99.90;;;;;;5011382;28;19929;-75
2022/12/28 12:11:09;;;;;;;;;;;11.70;99.90;;;;;;5000639;28;20003;-77
2022/12/28 12:13:43;;;;;;;;;;;11.80;99.90;;;;;;5009831;28;19929;-76
2022/12/28 12:16:18;;;;;;;;;;;11.80;99.90;;;;;;5011714;28;19929;-75
2022/12/28 12:18:48;;;;;;;;;;;11.80;99.90;;;;;;5014275;28;19926;-75
2022/12/28 12:21:21;;;;;;;;;;;11.80;99.90;;;;;;5009072;28;20297;-75
2022/12/28 12:23:50;;;;;;;;;;;11.80;99.90;;;;;;5011295;28;20618;-77
2022/12/28 12:26:26;;;;;;;;;;;11.80;99.90;;;;;;5013582;28;19961;-75
2022/12/28 12:28:54;;;;;;;;;;;11.80;99.90;;;;;;4985921;28;19936;-75
2022/12/28 12:31:24;;;;;;;;;;;11.80;99.90;;;;;;4992351;28;19936;-75
2022/12/28 12:33:56;;;;;;;;;;;11.80;99.90;;;;;;4994340;28;20016;-75
2022/12/28 12:36:31;;;;;;;;;;;11.80;99.90;;;;;;5015340;28;19971;-75
2022/12/28 12:39:11;;;;;;;;;;;11.80;99.90;;;;;;5014242;28;19945;-75
2022/12/28 12:41:42;;;;;;;;;;;11.80;99.90;;;;;;5004313;28;19929;-75
2022/12/28 12:44:17;;;;;;;;;;;11.70;99.90;;;;;;4985221;28;20455;-75
2022/12/28 12:47:05;;;;;;;;;;;11.60;99.90;;;;;;4996942;28;19929;-75
2022/12/28 12:49:40;;;;;;;;;;;11.60;99.90;;;;;;4990892;28;20391;-75
2022/12/28 12:52:15;;;;;;;;;;;11.60;99.90;;;;;;5016667;28;19925;-76
2022/12/28 12:54:49;;;;;;;;;;;11.50;99.90;;;;;;5012299;28;19926;-75
2022/12/28 12:57:18;;;;;;;;;;;11.50;99.90;;;;;;4984052;28;19933;-75
2022/12/28 12:59:57;;;;;;;;;;;11.40;99.90;;;;;;4991870;28;20343;-74
2022/12/28 13:02:42;;;;;;;;;;;11.40;99.90;;;;;;5007350;28;19930;-74
2022/12/28 13:05:15;;;;;;;;;;;11.40;99.90;;;;;;4997651;28;19993;-75
2022/12/28 13:07:42;;;;;;;;;;;11.40;99.90;;;;;;5009185;28;20033;-75
2022/12/28 13:10:14;;;;;;;;;;;11.30;99.90;;;;;;5001287;28;19968;-75
2022/12/28 13:12:42;;;;;;;;;;;11.30;99.90;;;;;;5007570;28;19933;-75
2022/12/28 13:15:15;;;;;;;;;;;11.30;99.90;;;;;;5013268;28;19929;-75
2022/12/28 13:17:57;;;;;;;;;;;11.30;99.90;;;;;;4989766;28;19929;-75
2022/12/28 13:20:25;;;;;;;;;;;11.30;99.90;;;;;;5003847;28;20385;-76
2022/12/28 13:22:53;;;;;;;;;;;11.30;99.90;;;;;;5002681;28;19926;-74
2022/12/28 13:25:24;;;;;;;;;;;11.20;99.90;;;;;;4988999;28;20257;-74
2022/12/28 13:27:51;;;;;;;;;;;11.20;99.90;;;;;;5009784;28;20039;-75
2022/12/28 13:30:19;;;;;;;;;;;11.20;99.90;;;;;;4994091;28;19929;-75
2022/12/28 13:32:50;;;;;;;;;;;11.20;99.90;;;;;;4996578;28;19951;-75
2022/12/28 13:35:18;;;;;;;;;;;11.20;99.90;;;;;;5004714;28;20443;-76
2022/12/28 13:38:00;;;;;;;;;;;11.10;99.90;;;;;;5011836;28;19929;-76
2022/12/28 13:40:27;;;;;;;;;;;11.10;99.90;;;;;;4996556;28;20020;-76
2022/12/28 13:42:57;;;;;;;;;;;11.10;99.90;;;;;;4993102;28;19925;-76
2022/12/28 13:45:24;;;;;;;;;;;11.10;99.90;;;;;;5009631;28;19930;-76
2022/12/28 13:47:53;;;;;;;;;;;11.10;99.90;;;;;;4985915;28;19925;-76
2022/12/28 13:50:23;;;;;;;;;;;11.10;99.90;;;;;;5007367;28;20660;-76
2022/12/28 13:52:51;;;;;;;;;;;11.90;99.90;;;;;;4982525;28;20008;-76
2022/12/28 13:55:22;;;;;;;;;;;11.10;99.90;;;;;;4996400;28;20385;-76
2022/12/28 13:57:52;;;;;;;;;;;11.10;99.90;;;;;;5024003;28;20441;-76
2022/12/28 14:00:19;;;;;;;;;;;11.10;99.90;;;;;;5008924;28;19940;-76
2022/12/28 14:02:47;;;;;;;;;;;11.20;99.90;;;;;;5017664;28;20016;-76
2022/12/28 14:05:18;;;;;;;;;;;11.20;99.90;;;;;;5017627;28;19925;-76
2022/12/28 14:07:45;;;;;;;;;;;11.20;99.90;;;;;;5012428;28;19940;-76
2022/12/28 14:10:12;;;;;;;;;;;12.60;99.90;;;;;;4982634;28;20059;-76
2022/12/28 14:12:41;;;;;;;;;;;11.10;99.90;;;;;;4994724;28;20020;-75
2022/12/28 14:15:09;;;;;;;;;;;11.10;99.90;;;;;;5008127;28;20044;-77
2022/12/28 14:17:37;;;;;;;;;;;11.00;99.90;;;;;;5020551;28;19996;-77
2022/12/28 14:20:04;;;;;;;;;;;11.10;99.90;;;;;;4994915;28;20425;-77
2022/12/28 14:22:32;;;;;;;;;;;11.90;99.90;;;;;;5003914;28;20382;-77
2022/12/28 14:24:59;;;;;;;;;;;11.10;99.90;;;;;;5011241;28;20027;-77
2022/12/28 14:27:27;;;;;;;;;;;11.00;99.90;;;;;;5011163;28;19932;-78
2022/12/28 14:29:57;;;;;;;;;;;11.00;99.90;;;;;;4994901;28;19936;-77
2022/12/28 14:32:24;;;;;;;;;;;11.00;99.90;;;;;;4995014;28;19988;-77
2022/12/28 14:34:55;;;;;;;;;;;11.10;99.90;;;;;;4992175;28;19933;-77
2022/12/28 14:37:25;;;;;;;;;;;11.10;99.90;;;;;;4994087;28;19925;-77
2022/12/28 14:39:53;;;;;;;;;;;11.10;99.90;;;;;;4995969;28;20439;-77
2022/12/28 14:42:22;;;;;;;;;;;10.30;99.90;;;;;;5010336;28;19925;-77
2022/12/28 14:44:49;;;;;;;;;;;11.10;99.90;;;;;;4986141;28;19929;-77
2022/12/28 14:47:36;;;;;;;;;;;11.10;99.90;;;;;;4990563;28;19965;-77
2022/12/28 14:50:15;;;;;;;;;;;11.10;99.90;;;;;;4984667;28;19930;-77
2022/12/28 14:52:43;;;;;;;;;;;11.10;99.90;;;;;;4986385;28;20055;-76
2022/12/28 14:55:21;;;;;;;;;;;11.10;99.90;;;;;;5012562;28;19925;-77
2022/12/28 14:57:51;;;;;;;;;;;11.10;99.90;;;;;;4987816;28;20149;-76
2022/12/28 15:00:23;;;;;;;;;;;11.10;99.90;;;;;;5024035;28;19929;-76
2022/12/28 15:02:49;;;;;;;;;;;11.10;99.90;;;;;;4990456;28;20412;-75
2022/12/28 15:05:35;;;;;;;;;;;11.10;99.90;;;;;;4995418;28;20330;-75